Time;durP1;ratioP1;P1;durP2;ratioP2;P2;SDS_P1;SDS_P2;PMS_P1;PMS_P2;Temp;Humidity;BMP_temperature;BMP_pressure;BME280_temperature;BME280_humidity;BME280_pressure;Samples;Min_cycle;Max_cycle;Signal;HPM_P1;HPM_P2
2022/03/08 00:02:16;;;;;;;;;;;-2.50;99.90;;;;;;5144093;28;19928;-71
2022/03/08 00:04:42;;;;;;;;;;;-2.50;99.90;;;;;;5144203;28;19924;-71
2022/03/08 00:07:09;;;;;;;;;;;-2.50;99.90;;;;;;5143745;28;20100;-71
2022/03/08 00:09:37;;;;;;;;;;;-2.50;99.90;;;;;;5144176;28;19919;-71
2022/03/08 00:12:04;;;;;;;;;;;-2.60;99.90;;;;;;5143953;27;20183;-71
2022/03/08 00:14:31;;;;;;;;;;;-2.60;99.90;;;;;;5144019;28;19920;-71
2022/03/08 00:16:58;;;;;;;;;;;-2.60;99.90;;;;;;5142263;27;20189;-71
2022/03/08 00:19:25;;;;;;;;;;;-2.60;99.90;;;;;;5143973;28;19927;-71
2022/03/08 00:21:52;;;;;;;;;;;-2.70;99.90;;;;;;5143025;28;20243;-71
2022/03/08 00:24:19;;;;;;;;;;;-2.70;99.90;;;;;;5137499;28;19949;-71
2022/03/08 00:26:47;;;;;;;;;;;-2.70;99.90;;;;;;5143712;28;19923;-71
2022/03/08 00:29:13;;;;;;;;;;;-2.70;99.90;;;;;;5144237;28;19919;-71
2022/03/08 00:31:40;;;;;;;;;;;-2.80;99.90;;;;;;5143558;27;19926;-71
2022/03/08 00:34:06;;;;;;;;;;;-2.90;99.90;;;;;;5144058;28;19927;-71
2022/03/08 00:36:33;;;;;;;;;;;-2.90;99.90;;;;;;5143477;28;19920;-72
2022/03/08 00:39:00;;;;;;;;;;;-2.90;99.90;;;;;;5144082;28;19919;-71
2022/03/08 00:41:26;;;;;;;;;;;-3.00;99.90;;;;;;5143739;28;19935;-70
2022/03/08 00:43:54;;;;;;;;;;;-3.00;99.90;;;;;;5146188;27;20240;-71
2022/03/08 00:46:21;;;;;;;;;;;-3.00;99.90;;;;;;5147279;27;19931;-70
2022/03/08 00:48:47;;;;;;;;;;;-3.00;99.90;;;;;;5147783;27;19926;-71
2022/03/08 00:51:14;;;;;;;;;;;-3.00;99.90;;;;;;5147671;27;19919;-70
2022/03/08 00:53:40;;;;;;;;;;;-2.90;99.90;;;;;;5147596;27;19923;-71
2022/03/08 00:56:07;;;;;;;;;;;-2.90;99.90;;;;;;5146626;27;19946;-71
2022/03/08 00:58:36;;;;;;;;;;;-2.90;99.90;;;;;;5147287;27;19927;-71
2022/03/08 01:01:04;;;;;;;;;;;-2.90;99.90;;;;;;5147363;27;20121;-71
2022/03/08 01:03:31;;;;;;;;;;;-2.90;99.90;;;;;;5158970;22;19924;-70
2022/03/08 01:05:57;;;;;;;;;;;-3.00;99.90;;;;;;5117034;28;19919;-69
2022/03/08 01:08:24;;;;;;;;;;;-3.00;99.90;;;;;;5122156;28;19924;-68
2022/03/08 01:10:54;;;;;;;;;;;-3.00;99.90;;;;;;5112071;28;19919;-70
2022/03/08 01:13:20;;;;;;;;;;;-3.00;99.90;;;;;;5121548;28;19926;-69
2022/03/08 01:15:47;;;;;;;;;;;-3.00;99.90;;;;;;5110348;28;19920;-70
2022/03/08 01:18:15;;;;;;;;;;;-3.00;99.90;;;;;;5105237;28;19920;-69
2022/03/08 01:20:42;;;;;;;;;;;-3.00;99.90;;;;;;5105794;28;19924;-68
2022/03/08 01:23:08;;;;;;;;;;;-3.00;99.90;;;;;;5105407;28;20200;-68
2022/03/08 01:25:37;;;;;;;;;;;-3.00;99.90;;;;;;5104470;28;19927;-69
2022/03/08 01:28:03;;;;;;;;;;;-3.10;99.90;;;;;;5105139;28;19935;-69
2022/03/08 01:30:30;;;;;;;;;;;-3.10;99.90;;;;;;5105762;28;19920;-69
2022/03/08 01:32:56;;;;;;;;;;;-3.10;99.90;;;;;;5101448;28;20234;-69
2022/03/08 01:35:25;;;;;;;;;;;-3.10;99.90;;;;;;5084764;28;19921;-69
2022/03/08 01:37:51;;;;;;;;;;;-3.10;99.90;;;;;;5085419;28;19927;-69
2022/03/08 01:40:18;;;;;;;;;;;-3.10;99.90;;;;;;5085081;28;19927;-69
2022/03/08 01:42:46;;;;;;;;;;;-3.20;99.90;;;;;;5085901;28;19943;-69
2022/03/08 01:45:13;;;;;;;;;;;-3.20;99.90;;;;;;5099872;28;19958;-73
2022/03/08 01:47:41;;;;;;;;;;;-3.20;99.90;;;;;;5105509;28;19926;-69
2022/03/08 01:50:08;;;;;;;;;;;-3.20;99.90;;;;;;5105122;28;20089;-68
2022/03/08 01:52:36;;;;;;;;;;;-3.20;99.90;;;;;;5105122;28;19926;-69
2022/03/08 01:55:03;;;;;;;;;;;-3.20;99.90;;;;;;5104325;28;19924;-69
2022/03/08 01:57:29;;;;;;;;;;;-3.20;99.90;;;;;;5104007;28;19928;-69
2022/03/08 01:59:56;;;;;;;;;;;-3.20;99.90;;;;;;5104930;28;19920;-69
2022/03/08 02:02:23;;;;;;;;;;;-3.30;99.90;;;;;;5104753;28;19920;-69
2022/03/08 02:04:50;;;;;;;;;;;-3.30;99.90;;;;;;5104955;28;19928;-69
2022/03/08 02:07:17;;;;;;;;;;;-3.30;99.90;;;;;;5104194;28;19920;-69
2022/03/08 02:09:45;;;;;;;;;;;-3.30;99.90;;;;;;5102992;28;19934;-68
2022/03/08 02:12:12;;;;;;;;;;;-3.40;99.90;;;;;;5119586;28;19919;-68
2022/03/08 02:14:38;;;;;;;;;;;-3.40;99.90;;;;;;5099867;28;19954;-69
2022/03/08 02:17:06;;;;;;;;;;;-3.40;99.90;;;;;;5122454;28;19962;-68
2022/03/08 02:19:33;;;;;;;;;;;-3.40;99.90;;;;;;5124877;28;19959;-69
2022/03/08 02:22:01;;;;;;;;;;;-3.50;99.90;;;;;;5105831;28;19920;-69
2022/03/08 02:24:27;;;;;;;;;;;-3.50;99.90;;;;;;5096379;28;19920;-68
2022/03/08 02:26:55;;;;;;;;;;;-3.50;99.90;;;;;;5103866;28;19920;-69
2022/03/08 02:29:21;;;;;;;;;;;-3.60;99.90;;;;;;5103186;28;19927;-69
2022/03/08 02:31:48;;;;;;;;;;;-3.50;99.90;;;;;;5102022;28;19924;-68
2022/03/08 02:34:16;;;;;;;;;;;-3.50;99.90;;;;;;5098421;28;19928;-68
2022/03/08 02:36:55;;;;;;;;;;;-3.60;99.90;;;;;;5103780;28;19951;-68
2022/03/08 02:39:23;;;;;;;;;;;-3.60;99.90;;;;;;5099919;28;19928;-68
2022/03/08 02:41:50;;;;;;;;;;;-3.60;99.90;;;;;;5103783;28;19920;-69
2022/03/08 02:44:16;;;;;;;;;;;-3.70;99.90;;;;;;5104114;28;19920;-69
2022/03/08 02:46:43;;;;;;;;;;;-3.70;99.90;;;;;;5103470;28;20225;-68
2022/03/08 02:49:11;;;;;;;;;;;-3.70;99.90;;;;;;5093983;28;20212;-69
2022/03/08 02:51:37;;;;;;;;;;;-3.70;99.90;;;;;;5084152;28;20122;-69
2022/03/08 02:54:04;;;;;;;;;;;-3.70;99.90;;;;;;5102000;28;19920;-69
2022/03/08 02:56:32;;;;;;;;;;;-3.70;99.90;;;;;;5088563;28;19921;-69
2022/03/08 02:58:58;;;;;;;;;;;-3.80;99.90;;;;;;5103619;28;19927;-68
2022/03/08 03:01:26;;;;;;;;;;;-3.80;99.90;;;;;;5103907;28;19926;-68
2022/03/08 03:03:52;;;;;;;;;;;-3.80;99.90;;;;;;5103217;28;19920;-69
2022/03/08 03:06:19;;;;;;;;;;;-3.80;99.90;;;;;;5106026;28;19924;-69
2022/03/08 03:08:45;;;;;;;;;;;-3.90;99.90;;;;;;5114101;28;19924;-69
2022/03/08 03:11:12;;;;;;;;;;;-3.90;99.90;;;;;;5089137;28;19921;-70
2022/03/08 03:13:40;;;;;;;;;;;-3.80;99.90;;;;;;5083203;28;20120;-69
2022/03/08 03:16:06;;;;;;;;;;;-3.80;99.90;;;;;;5086758;28;19926;-70
2022/03/08 03:18:33;;;;;;;;;;;-3.80;99.90;;;;;;5103770;28;19927;-69
2022/03/08 03:20:59;;;;;;;;;;;-3.80;99.90;;;;;;5103526;28;19920;-69
2022/03/08 03:23:26;;;;;;;;;;;-3.90;99.90;;;;;;5103623;28;19920;-69
2022/03/08 03:25:52;;;;;;;;;;;-3.90;99.90;;;;;;5100486;28;19920;-69
2022/03/08 03:28:19;;;;;;;;;;;-3.90;99.90;;;;;;5103457;28;19920;-68
2022/03/08 03:30:47;;;;;;;;;;;-3.90;99.90;;;;;;5100576;28;20207;-69
2022/03/08 03:33:14;;;;;;;;;;;-3.90;99.90;;;;;;5103300;28;19926;-69
2022/03/08 03:35:40;;;;;;;;;;;-3.90;99.90;;;;;;5102948;28;19926;-69
2022/03/08 03:38:07;;;;;;;;;;;-3.90;99.90;;;;;;5103514;28;19920;-69
2022/03/08 03:40:33;;;;;;;;;;;-3.90;99.90;;;;;;5102753;28;20233;-69
2022/03/08 03:43:00;;;;;;;;;;;-3.90;99.90;;;;;;5103326;28;19920;-69
2022/03/08 03:45:26;;;;;;;;;;;-4.00;99.90;;;;;;5085194;28;19927;-69
2022/03/08 03:47:54;;;;;;;;;;;-4.00;99.90;;;;;;5083086;28;20131;-69
2022/03/08 03:50:21;;;;;;;;;;;-4.00;99.90;;;;;;5083202;28;20027;-68
2022/03/08 03:52:47;;;;;;;;;;;-4.00;99.90;;;;;;5090867;28;19920;-68
2022/03/08 03:55:14;;;;;;;;;;;-4.10;99.90;;;;;;5103011;28;19983;-69
2022/03/08 03:57:41;;;;;;;;;;;-4.10;99.90;;;;;;5102992;28;19920;-69
2022/03/08 04:00:09;;;;;;;;;;;-4.10;99.90;;;;;;5103430;28;19924;-68
2022/03/08 04:02:36;;;;;;;;;;;-4.10;99.90;;;;;;5102917;28;19926;-69
2022/03/08 04:05:04;;;;;;;;;;;-4.10;99.90;;;;;;5098691;28;19920;-68
2022/03/08 04:07:31;;;;;;;;;;;-4.10;99.90;;;;;;5099855;28;19927;-69
2022/03/08 04:09:58;;;;;;;;;;;-4.10;99.90;;;;;;5099615;28;19933;-68
2022/03/08 04:12:25;;;;;;;;;;;-4.10;99.90;;;;;;5103462;28;19927;-68
2022/03/08 04:14:51;;;;;;;;;;;-4.10;99.90;;;;;;5103226;28;19924;-68
2022/03/08 04:17:18;;;;;;;;;;;-4.10;99.90;;;;;;5102404;28;19920;-69
2022/03/08 04:19:44;;;;;;;;;;;-4.20;99.90;;;;;;5086685;28;19984;-67
2022/03/08 04:22:12;;;;;;;;;;;-4.20;99.90;;;;;;5086722;28;20235;-68
2022/03/08 04:24:39;;;;;;;;;;;-4.20;99.90;;;;;;5101957;28;19920;-69
2022/03/08 04:27:06;;;;;;;;;;;-4.20;99.90;;;;;;5105110;28;19981;-68
2022/03/08 04:29:33;;;;;;;;;;;-4.20;99.90;;;;;;5106666;28;19981;-69
2022/03/08 04:32:00;;;;;;;;;;;-4.30;99.90;;;;;;5106484;28;19926;-69
2022/03/08 04:34:26;;;;;;;;;;;-4.20;99.90;;;;;;5101965;28;20253;-69
2022/03/08 04:36:53;;;;;;;;;;;-4.20;99.90;;;;;;5106267;28;19920;-68
2022/03/08 04:39:21;;;;;;;;;;;-4.20;99.90;;;;;;5106700;28;19920;-69
2022/03/08 04:41:47;;;;;;;;;;;-4.20;99.90;;;;;;5106126;28;19920;-69
2022/03/08 04:44:14;;;;;;;;;;;-4.20;99.90;;;;;;5104319;28;19920;-68
2022/03/08 04:46:41;;;;;;;;;;;-4.20;99.90;;;;;;5102457;28;19956;-69
2022/03/08 04:49:08;;;;;;;;;;;-4.30;99.90;;;;;;5086378;28;19920;-68
2022/03/08 04:51:34;;;;;;;;;;;-4.30;99.90;;;;;;5102297;28;20122;-69
2022/03/08 04:54:01;;;;;;;;;;;-4.40;99.90;;;;;;5106188;28;19920;-68
2022/03/08 04:56:29;;;;;;;;;;;-4.40;99.90;;;;;;5106013;28;19956;-69
2022/03/08 04:58:56;;;;;;;;;;;-4.40;99.90;;;;;;5103049;28;20208;-69
2022/03/08 05:01:23;;;;;;;;;;;-4.40;99.90;;;;;;5103994;28;19920;-68
2022/03/08 05:03:50;;;;;;;;;;;-4.40;99.90;;;;;;5101862;28;19924;-68
2022/03/08 05:06:16;;;;;;;;;;;-4.40;99.90;;;;;;5105545;28;19965;-68
2022/03/08 05:08:43;;;;;;;;;;;-4.40;99.90;;;;;;5105968;28;19939;-68
2022/03/08 05:11:09;;;;;;;;;;;-4.30;99.90;;;;;;5106078;28;19947;-69
2022/03/08 05:13:38;;;;;;;;;;;-4.30;99.90;;;;;;5105517;28;19927;-69
2022/03/08 05:16:04;;;;;;;;;;;-4.30;99.90;;;;;;5121851;28;19920;-69
2022/03/08 05:18:31;;;;;;;;;;;-4.30;99.90;;;;;;5126260;28;20158;-68
2022/03/08 05:20:58;;;;;;;;;;;-4.30;99.90;;;;;;5110021;28;19920;-69
2022/03/08 05:23:24;;;;;;;;;;;-4.30;99.90;;;;;;5105834;28;19920;-70
2022/03/08 05:25:51;;;;;;;;;;;-4.30;99.90;;;;;;5105398;28;19927;-68
2022/03/08 05:28:17;;;;;;;;;;;-4.30;99.90;;;;;;5111737;28;19919;-69
2022/03/08 05:30:45;;;;;;;;;;;-4.30;99.90;;;;;;5106254;28;19920;-68
2022/03/08 05:33:12;;;;;;;;;;;-4.30;99.90;;;;;;5105553;28;19920;-68
2022/03/08 05:35:39;;;;;;;;;;;-4.40;99.90;;;;;;5105790;28;19930;-68
2022/03/08 05:38:05;;;;;;;;;;;-4.40;99.90;;;;;;5105999;28;19920;-68
2022/03/08 05:40:32;;;;;;;;;;;-4.40;99.90;;;;;;5098859;28;19935;-72
2022/03/08 05:43:01;;;;;;;;;;;-4.40;99.90;;;;;;5105470;28;19920;-68
2022/03/08 05:45:28;;;;;;;;;;;-4.40;99.90;;;;;;5097960;28;19955;-68
2022/03/08 05:47:56;;;;;;;;;;;-4.50;99.90;;;;;;5086705;28;19928;-69
2022/03/08 05:50:23;;;;;;;;;;;-4.50;99.90;;;;;;5101581;28;19927;-68
2022/03/08 05:52:49;;;;;;;;;;;-4.50;99.90;;;;;;5085319;28;19920;-69
2022/03/08 05:55:16;;;;;;;;;;;-4.50;99.90;;;;;;5087253;28;20119;-69
2022/03/08 05:57:42;;;;;;;;;;;-4.50;99.90;;;;;;5112089;28;19927;-68
2022/03/08 06:00:10;;;;;;;;;;;-4.60;99.90;;;;;;5106466;28;19920;-65
2022/03/08 06:02:37;;;;;;;;;;;-4.60;99.90;;;;;;5105387;28;19920;-70
2022/03/08 06:05:07;;;;;;;;;;;-4.60;99.90;;;;;;5099732;28;19935;-69
2022/03/08 06:07:34;;;;;;;;;;;-4.60;99.90;;;;;;5105459;28;19926;-69
2022/03/08 06:10:02;;;;;;;;;;;-4.60;99.90;;;;;;5105152;28;20323;-72
2022/03/08 06:12:28;;;;;;;;;;;-4.60;99.90;;;;;;5104118;28;19968;-69
2022/03/08 06:14:55;;;;;;;;;;;-4.60;99.90;;;;;;5097788;28;19921;-70
2022/03/08 06:17:21;;;;;;;;;;;-4.60;99.90;;;;;;5103130;28;19920;-70
2022/03/08 06:19:48;;;;;;;;;;;-4.60;99.90;;;;;;5104290;28;19920;-70
2022/03/08 06:22:16;;;;;;;;;;;-4.60;99.90;;;;;;5104314;28;19920;-69
2022/03/08 06:24:42;;;;;;;;;;;-4.50;99.90;;;;;;5104676;28;19927;-70
2022/03/08 06:27:09;;;;;;;;;;;-4.50;99.90;;;;;;5103878;28;19920;-68
2022/03/08 06:29:36;;;;;;;;;;;-4.40;99.90;;;;;;5098924;28;19920;-70
2022/03/08 06:32:03;;;;;;;;;;;-4.40;99.90;;;;;;5101623;28;19923;-70
2022/03/08 06:34:29;;;;;;;;;;;-4.40;99.90;;;;;;5093161;28;19920;-69
2022/03/08 06:36:56;;;;;;;;;;;-4.40;99.90;;;;;;5089048;28;19934;-70
2022/03/08 06:39:24;;;;;;;;;;;-4.40;99.90;;;;;;5103225;28;20233;-70
2022/03/08 06:41:50;;;;;;;;;;;-4.40;99.90;;;;;;5103607;28;19920;-69
2022/03/08 06:44:17;;;;;;;;;;;-4.40;99.90;;;;;;5104149;28;19926;-69
2022/03/08 06:46:46;;;;;;;;;;;-4.40;99.90;;;;;;5103508;28;19927;-69
2022/03/08 06:49:13;;;;;;;;;;;-4.40;99.90;;;;;;5093381;28;19921;-69
2022/03/08 06:51:39;;;;;;;;;;;-4.40;99.90;;;;;;5096925;28;19927;-69
2022/03/08 06:54:06;;;;;;;;;;;-4.30;99.90;;;;;;5103803;28;19920;-70
2022/03/08 06:56:34;;;;;;;;;;;-4.20;99.90;;;;;;5103313;28;19920;-69
2022/03/08 06:59:01;;;;;;;;;;;-4.20;99.90;;;;;;5103499;28;19920;-69
2022/03/08 07:01:28;;;;;;;;;;;-4.20;99.90;;;;;;5103862;28;19928;-70
2022/03/08 07:03:54;;;;;;;;;;;-4.10;99.90;;;;;;5089499;28;20136;-70
2022/03/08 07:06:21;;;;;;;;;;;-4.10;99.90;;;;;;5083099;28;19920;-69
2022/03/08 07:08:47;;;;;;;;;;;-4.10;99.90;;;;;;5083154;28;19989;-69
2022/03/08 07:11:14;;;;;;;;;;;-4.10;99.90;;;;;;5110443;28;19920;-69
2022/03/08 07:13:42;;;;;;;;;;;-4.00;99.90;;;;;;5101748;28;19920;-70
2022/03/08 07:16:09;;;;;;;;;;;-4.00;99.90;;;;;;5102430;28;19920;-70
2022/03/08 07:18:35;;;;;;;;;;;-3.90;99.90;;;;;;5102867;28;19920;-70
2022/03/08 07:21:03;;;;;;;;;;;-3.80;99.90;;;;;;5103663;28;19920;-69
2022/03/08 07:23:30;;;;;;;;;;;-3.80;99.90;;;;;;5103195;28;19920;-69
2022/03/08 07:25:56;;;;;;;;;;;-3.70;99.90;;;;;;5102767;28;19923;-70
2022/03/08 07:28:23;;;;;;;;;;;-3.70;99.90;;;;;;5103192;28;20280;-69
2022/03/08 07:30:52;;;;;;;;;;;-3.60;99.90;;;;;;5101081;28;20123;-69
2022/03/08 07:33:19;;;;;;;;;;;-3.50;99.90;;;;;;5088530;28;19925;-69
2022/03/08 07:35:45;;;;;;;;;;;-3.40;99.90;;;;;;5082677;28;19921;-70
2022/03/08 07:38:12;;;;;;;;;;;-3.30;99.90;;;;;;5082369;28;20156;-69
2022/03/08 07:40:39;;;;;;;;;;;-3.20;99.90;;;;;;5092899;28;20226;-70
2022/03/08 07:43:06;;;;;;;;;;;-3.20;99.90;;;;;;5103467;28;19932;-70
2022/03/08 07:45:35;;;;;;;;;;;-3.10;99.90;;;;;;5102862;28;19935;-69
2022/03/08 07:48:04;;;;;;;;;;;-3.00;99.90;;;;;;5096580;28;19926;-70
2022/03/08 07:50:31;;;;;;;;;;;-2.90;99.90;;;;;;5103100;28;19987;-70
2022/03/08 07:52:59;;;;;;;;;;;-2.80;99.90;;;;;;5099103;28;19926;-71
2022/03/08 07:55:26;;;;;;;;;;;-2.60;99.90;;;;;;5117061;28;19920;-71
2022/03/08 07:57:53;;;;;;;;;;;-2.40;99.90;;;;;;5107264;28;19968;-70
2022/03/08 08:00:20;;;;;;;;;;;-2.30;99.90;;;;;;5105323;28;19927;-70
2022/03/08 08:02:47;;;;;;;;;;;-2.20;99.90;;;;;;5092347;28;19927;-70
2022/03/08 08:05:15;;;;;;;;;;;-2.00;99.90;;;;;;5086698;28;19927;-70
2022/03/08 08:07:41;;;;;;;;;;;-1.90;99.90;;;;;;5092514;28;20172;-70
2022/03/08 08:10:08;;;;;;;;;;;-1.80;99.90;;;;;;5099284;28;19929;-70
2022/03/08 08:12:35;;;;;;;;;;;-1.70;99.90;;;;;;5088975;28;20207;-70
2022/03/08 08:15:02;;;;;;;;;;;-1.60;99.90;;;;;;5104960;28;20257;-72
2022/03/08 08:17:28;;;;;;;;;;;-1.40;99.90;;;;;;5088281;28;19920;-72
2022/03/08 08:19:55;;;;;;;;;;;-1.30;99.90;;;;;;5094132;28;19943;-71
2022/03/08 08:22:23;;;;;;;;;;;-1.10;99.90;;;;;;5107098;28;19920;-70
2022/03/08 08:24:49;;;;;;;;;;;-1.00;99.90;;;;;;5107642;28;19920;-69
2022/03/08 08:27:16;;;;;;;;;;;-0.80;99.90;;;;;;5107145;28;19920;-70
2022/03/08 08:29:43;;;;;;;;;;;-0.70;99.90;;;;;;5107119;28;19927;-70
2022/03/08 08:32:09;;;;;;;;;;;-0.60;99.90;;;;;;5107349;28;19920;-70
2022/03/08 08:34:36;;;;;;;;;;;-0.60;99.90;;;;;;5107435;28;19927;-69
2022/03/08 08:37:02;;;;;;;;;;;-0.40;99.90;;;;;;5106782;28;19920;-71
2022/03/08 08:39:30;;;;;;;;;;;-0.30;99.90;;;;;;5107151;28;19942;-71
2022/03/08 08:41:57;;;;;;;;;;;-0.20;99.90;;;;;;5107254;28;19920;-71
2022/03/08 08:44:26;;;;;;;;;;;0.00;99.90;;;;;;5107352;28;20199;-70
2022/03/08 08:46:53;;;;;;;;;;;0.10;99.90;;;;;;5106504;28;19924;-71
2022/03/08 08:49:19;;;;;;;;;;;0.30;99.90;;;;;;5108261;28;19919;-71
2022/03/08 08:51:46;;;;;;;;;;;0.40;99.90;;;;;;5107348;28;19920;-71
2022/03/08 08:54:12;;;;;;;;;;;0.50;99.90;;;;;;5106732;28;19920;-70
2022/03/08 08:56:40;;;;;;;;;;;0.60;99.90;;;;;;5106219;28;19920;-70
2022/03/08 08:59:07;;;;;;;;;;;0.70;99.90;;;;;;5104458;28;19920;-70
2022/03/08 09:01:34;;;;;;;;;;;0.80;99.90;;;;;;5106708;28;20215;-71
2022/03/08 09:04:00;;;;;;;;;;;1.00;99.90;;;;;;5106472;28;19920;-71
2022/03/08 09:06:27;;;;;;;;;;;1.10;99.90;;;;;;5110286;28;20198;-70
2022/03/08 09:08:56;;;;;;;;;;;1.20;99.90;;;;;;5127076;28;20144;-71
2022/03/08 09:11:22;;;;;;;;;;;1.30;99.90;;;;;;5127397;28;19920;-71
2022/03/08 09:13:50;;;;;;;;;;;1.40;99.90;;;;;;5127003;28;20219;-71
2022/03/08 09:16:17;;;;;;;;;;;1.60;99.90;;;;;;5119569;28;19920;-70
2022/03/08 09:18:43;;;;;;;;;;;1.70;99.90;;;;;;5106551;28;19926;-71
2022/03/08 09:21:11;;;;;;;;;;;1.80;99.90;;;;;;5106757;28;19920;-72
2022/03/08 09:23:38;;;;;;;;;;;2.00;99.90;;;;;;5106395;28;19920;-71
2022/03/08 09:26:04;;;;;;;;;;;2.10;99.90;;;;;;5097017;28;19983;-71
2022/03/08 09:28:31;;;;;;;;;;;2.20;99.90;;;;;;5110891;28;20208;-71
2022/03/08 09:31:00;;;;;;;;;;;2.30;99.90;;;;;;5127018;28;20252;-71
2022/03/08 09:33:26;;;;;;;;;;;2.40;99.90;;;;;;5102410;28;19921;-71
2022/03/08 09:35:53;;;;;;;;;;;2.60;99.90;;;;;;5085465;28;19924;-71
2022/03/08 09:38:20;;;;;;;;;;;2.70;99.90;;;;;;5085842;28;19920;-71
2022/03/08 09:40:47;;;;;;;;;;;2.80;99.90;;;;;;5086051;28;19924;-71
2022/03/08 09:43:14;;;;;;;;;;;2.90;99.90;;;;;;5085672;28;19983;-71
2022/03/08 09:45:41;;;;;;;;;;;3.10;99.90;;;;;;5085309;28;19920;-70
2022/03/08 09:48:09;;;;;;;;;;;3.10;99.90;;;;;;5087675;28;19924;-71
2022/03/08 09:50:36;;;;;;;;;;;3.10;99.90;;;;;;5104043;28;19924;-71
2022/03/08 09:53:03;;;;;;;;;;;3.30;99.90;;;;;;5105887;28;19920;-71
2022/03/08 09:55:30;;;;;;;;;;;3.40;99.90;;;;;;5105052;28;20092;-71
2022/03/08 09:57:56;;;;;;;;;;;3.40;99.90;;;;;;5105886;28;19927;-70
2022/03/08 10:00:24;;;;;;;;;;;3.50;99.90;;;;;;5105458;28;19920;-72
2022/03/08 10:02:52;;;;;;;;;;;3.60;99.90;;;;;;5105653;28;19920;-71
2022/03/08 10:05:23;;;;;;;;;;;3.70;99.90;;;;;;5105090;28;19920;-71
2022/03/08 10:08:02;;;;;;;;;;;3.90;99.90;;;;;;5105405;28;19920;-71
2022/03/08 10:10:30;;;;;;;;;;;4.00;99.90;;;;;;5105355;28;19942;-70
2022/03/08 10:12:57;;;;;;;;;;;4.00;99.90;;;;;;5105749;28;19920;-71
2022/03/08 10:15:24;;;;;;;;;;;4.10;99.90;;;;;;5103854;28;19962;-71
2022/03/08 10:17:50;;;;;;;;;;;4.30;99.90;;;;;;5105295;28;19926;-71
2022/03/08 10:20:29;;;;;;;;;;;4.30;99.90;;;;;;5105503;28;19927;-71
2022/03/08 10:22:56;;;;;;;;;;;4.50;99.90;;;;;;5098571;28;19924;-71
2022/03/08 10:25:24;;;;;;;;;;;4.60;99.90;;;;;;5092798;28;19978;-71
2022/03/08 10:28:01;;;;;;;;;;;4.60;99.90;;;;;;5105558;28;19926;-71
2022/03/08 10:30:29;;;;;;;;;;;4.70;99.90;;;;;;5105350;28;19920;-71
2022/03/08 10:32:56;;;;;;;;;;;4.80;99.90;;;;;;5101700;28;19927;-71
2022/03/08 10:35:23;;;;;;;;;;;4.90;99.90;;;;;;5084261;28;19924;-71
2022/03/08 10:37:50;;;;;;;;;;;5.00;99.70;;;;;;5085041;28;19924;-71
2022/03/08 10:40:23;;;;;;;;;;;5.00;99.90;;;;;;5087343;28;19920;-71
2022/03/08 10:42:58;;;;;;;;;;;5.20;99.90;;;;;;5104937;28;19979;-71
2022/03/08 10:45:27;;;;;;;;;;;5.30;99.60;;;;;;5104373;28;19920;-72
2022/03/08 10:47:53;;;;;;;;;;;5.40;99.90;;;;;;5104018;28;19920;-71
2022/03/08 10:50:20;;;;;;;;;;;5.50;99.10;;;;;;5104606;28;19920;-71
2022/03/08 10:52:48;;;;;;;;;;;5.60;99.10;;;;;;5104816;28;19920;-71
2022/03/08 10:55:16;;;;;;;;;;;5.70;99.10;;;;;;5087561;28;20147;-71
2022/03/08 10:57:45;;;;;;;;;;;5.80;99.10;;;;;;5084215;28;20254;-71
2022/03/08 11:00:14;;;;;;;;;;;6.00;99.00;;;;;;5084306;28;19927;-72
2022/03/08 11:02:49;;;;;;;;;;;6.10;99.30;;;;;;5084282;28;20142;-71
2022/03/08 11:05:18;;;;;;;;;;;6.20;98.80;;;;;;5082996;28;20281;-72
2022/03/08 11:07:45;;;;;;;;;;;6.30;98.00;;;;;;5084407;28;19946;-71
2022/03/08 11:10:12;;;;;;;;;;;6.30;97.40;;;;;;5084317;28;19920;-71
2022/03/08 11:12:39;;;;;;;;;;;6.30;98.20;;;;;;5084307;28;19930;-72
2022/03/08 11:15:08;;;;;;;;;;;6.30;97.20;;;;;;5084206;28;20111;-71
2022/03/08 11:17:35;;;;;;;;;;;6.30;96.90;;;;;;5083899;28;19920;-71
2022/03/08 11:20:03;;;;;;;;;;;6.40;97.00;;;;;;5098179;28;19920;-71
2022/03/08 11:22:30;;;;;;;;;;;6.60;97.40;;;;;;5104434;28;19920;-71
2022/03/08 11:24:57;;;;;;;;;;;6.60;96.90;;;;;;5103876;28;19919;-71
2022/03/08 11:27:24;;;;;;;;;;;6.70;96.10;;;;;;5103492;28;19920;-72
2022/03/08 11:29:52;;;;;;;;;;;6.80;95.90;;;;;;5103878;28;20215;-72
2022/03/08 11:32:22;;;;;;;;;;;6.80;96.80;;;;;;5104131;28;19959;-72
2022/03/08 11:34:55;;;;;;;;;;;7.00;96.00;;;;;;5104226;28;19920;-71
2022/03/08 11:37:23;;;;;;;;;;;7.10;95.70;;;;;;5095853;28;19926;-71
2022/03/08 11:40:04;;;;;;;;;;;7.20;95.70;;;;;;5104177;28;19946;-71
2022/03/08 11:42:32;;;;;;;;;;;7.30;95.60;;;;;;5104160;28;19924;-71
2022/03/08 11:45:00;;;;;;;;;;;7.50;94.90;;;;;;5103805;28;19920;-71
2022/03/08 11:47:37;;;;;;;;;;;7.60;93.70;;;;;;5102735;28;20150;-72
2022/03/08 11:50:05;;;;;;;;;;;7.80;93.90;;;;;;5104086;28;19978;-71
2022/03/08 11:52:33;;;;;;;;;;;8.00;92.50;;;;;;5103788;28;20120;-71
2022/03/08 11:55:03;;;;;;;;;;;8.00;92.00;;;;;;5103704;28;19920;-71
2022/03/08 11:57:49;;;;;;;;;;;8.20;91.70;;;;;;5102557;28;19920;-71
2022/03/08 12:00:16;;;;;;;;;;;8.40;91.30;;;;;;5104076;28;20115;-71
2022/03/08 12:02:45;;;;;;;;;;;8.60;91.90;;;;;;5103738;28;19942;-71
2022/03/08 12:05:26;;;;;;;;;;;8.80;91.00;;;;;;5103116;28;19920;-71
2022/03/08 12:07:54;;;;;;;;;;;8.60;90.70;;;;;;5102017;28;20215;-71
2022/03/08 12:10:24;;;;;;;;;;;8.30;89.30;;;;;;5102556;28;20124;-71
2022/03/08 12:12:53;;;;;;;;;;;8.20;89.90;;;;;;5103300;28;19956;-71
2022/03/08 12:15:20;;;;;;;;;;;8.20;90.50;;;;;;5102857;28;20203;-71
2022/03/08 12:18:02;;;;;;;;;;;8.30;90.60;;;;;;5103959;28;19962;-72
2022/03/08 12:20:30;;;;;;;;;;;8.60;90.90;;;;;;5102794;28;19971;-72
2022/03/08 12:23:08;;;;;;;;;;;8.70;88.40;;;;;;5103524;28;20150;-71
2022/03/08 12:25:34;;;;;;;;;;;8.80;87.80;;;;;;5102567;28;19927;-71
2022/03/08 12:28:02;;;;;;;;;;;8.80;87.10;;;;;;5103647;28;19921;-71
2022/03/08 12:30:42;;;;;;;;;;;8.80;87.10;;;;;;5103664;28;19928;-71
2022/03/08 12:33:09;;;;;;;;;;;8.60;85.40;;;;;;5102847;28;19955;-71
2022/03/08 12:35:51;;;;;;;;;;;8.50;84.90;;;;;;5102972;28;20200;-71
2022/03/08 12:38:18;;;;;;;;;;;8.60;87.00;;;;;;5103019;28;20226;-73
2022/03/08 12:40:48;;;;;;;;;;;8.80;85.50;;;;;;5107464;28;20156;-72
2022/03/08 12:43:35;;;;;;;;;;;8.80;84.90;;;;;;5106450;28;19927;-71
2022/03/08 12:46:02;;;;;;;;;;;9.00;84.80;;;;;;5106611;28;19921;-71
2022/03/08 12:48:29;;;;;;;;;;;9.40;86.70;;;;;;5116676;28;19920;-72
2022/03/08 12:50:57;;;;;;;;;;;9.60;83.30;;;;;;5118747;28;19927;-71
2022/03/08 12:53:25;;;;;;;;;;;9.70;81.50;;;;;;5106992;28;19920;-72
2022/03/08 12:55:53;;;;;;;;;;;9.70;82.20;;;;;;5106154;28;19920;-72
2022/03/08 12:58:21;;;;;;;;;;;9.80;80.40;;;;;;5106707;28;19920;-68
2022/03/08 13:00:52;;;;;;;;;;;10.00;79.40;;;;;;5106851;28;19928;-69
2022/03/08 13:03:19;;;;;;;;;;;10.10;80.10;;;;;;5106528;28;20162;-70
2022/03/08 13:05:47;;;;;;;;;;;9.90;79.70;;;;;;5105879;28;19927;-71
2022/03/08 13:08:17;;;;;;;;;;;9.70;79.60;;;;;;5106709;28;20235;-71
2022/03/08 13:10:44;;;;;;;;;;;9.70;80.10;;;;;;5106750;28;19920;-72
2022/03/08 13:13:30;;;;;;;;;;;9.80;81.40;;;;;;5098616;28;19920;-71
2022/03/08 13:15:57;;;;;;;;;;;10.10;79.10;;;;;;5085582;28;22214;-72
2022/03/08 13:18:24;;;;;;;;;;;10.40;79.80;;;;;;5090223;28;19928;-71
2022/03/08 13:20:51;;;;;;;;;;;10.50;77.00;;;;;;5106452;28;19926;-72
2022/03/08 13:23:21;;;;;;;;;;;10.60;76.50;;;;;;5106607;28;19920;-72
2022/03/08 13:25:49;;;;;;;;;;;10.50;74.90;;;;;;5122417;28;19984;-72
2022/03/08 13:28:16;;;;;;;;;;;10.20;75.10;;;;;;5126901;28;19982;-71
2022/03/08 13:30:43;;;;;;;;;;;10.00;74.70;;;;;;5126441;28;19919;-72
2022/03/08 13:33:20;;;;;;;;;;;9.80;77.80;;;;;;5126918;28;19924;-71
2022/03/08 13:35:48;;;;;;;;;;;10.00;76.80;;;;;;5103774;28;20333;-69
2022/03/08 13:38:16;;;;;;;;;;;10.30;76.30;;;;;;5106143;28;20212;-69
2022/03/08 13:40:48;;;;;;;;;;;10.40;74.40;;;;;;5103276;28;19973;-72
2022/03/08 13:43:16;;;;;;;;;;;10.20;74.80;;;;;;5106386;28;19927;-72
2022/03/08 13:45:42;;;;;;;;;;;10.30;75.20;;;;;;5105345;28;19991;-70
2022/03/08 13:48:11;;;;;;;;;;;10.60;76.70;;;;;;5090571;28;19925;-69
2022/03/08 13:50:38;;;;;;;;;;;10.80;74.50;;;;;;5084390;28;19921;-70
2022/03/08 13:53:06;;;;;;;;;;;11.10;74.30;;;;;;5085445;28;19928;-70
2022/03/08 13:55:33;;;;;;;;;;;11.20;74.50;;;;;;5092040;28;19932;-70
2022/03/08 13:58:01;;;;;;;;;;;11.00;72.00;;;;;;5106017;28;19943;-69
2022/03/08 14:00:29;;;;;;;;;;;10.90;72.20;;;;;;5105760;28;19935;-70
2022/03/08 14:02:56;;;;;;;;;;;11.10;73.10;;;;;;5086115;28;20263;-70
2022/03/08 14:05:23;;;;;;;;;;;11.40;73.50;;;;;;5085016;28;20261;-70
2022/03/08 14:08:03;;;;;;;;;;;11.60;72.00;;;;;;5088817;28;19928;-69
2022/03/08 14:10:30;;;;;;;;;;;11.70;69.10;;;;;;5105824;28;19926;-69
2022/03/08 14:12:58;;;;;;;;;;;11.50;69.60;;;;;;5105786;28;19927;-69
2022/03/08 14:15:26;;;;;;;;;;;11.20;69.90;;;;;;5122926;28;19978;-70
2022/03/08 14:18:16;;;;;;;;;;;10.90;70.40;;;;;;5123523;28;19935;-69
2022/03/08 14:21:03;;;;;;;;;;;10.70;71.50;;;;;;5101558;28;19921;-70
2022/03/08 14:23:47;;;;;;;;;;;10.70;71.70;;;;;;5097071;28;19920;-70
2022/03/08 14:26:16;;;;;;;;;;;10.60;72.10;;;;;;5104361;28;19920;-70